PWSweather.com
Personal Weather Stations
Station Observations
KMNHANSK2
Andys Live Weather Stations, Hanska, MN 56041

Andys Live Weather StationsHanska, MN 56041

Lat: 44.170119, Lon: -94.381619

Elevation: 1004

Station Type: Davis Instruments Vantage Pro2 Plus

http://www.madeliasliveweather.com/thompsonfarms/

Latest ConditionsUpdated 2:34:01 AM CST Friday, Nov 28, 2014
Currently Today's Max Today's Min Today's Average
Temperature 11.9°F-11.2°C 11.9°F-11.2°C 8.6°F-13.0°C 10.3°F-12.1°C
Dew Point 9.5°F-12.5°C 9.5°F-12.5°C 6.0°F-14.4°C 8.0°F-13.3°C
Winds 16.0 mph SE25.7 kmh SE 20.0 mph SE32.2 kmh SE - 15.0 mph 24.1 kmh
Wind Gusts 20.0 mph32.2 kmh 22.0 mph35.4 kmh - -
Humidity 90% 90% 89% 90%
Pressure 30.18 in1022.0 mb 30.31 in1026.4 mb 30.18 in1022.0 mb -
Hour Temp Dew Point Humidity Winds Wind Gusts Pressure Precip Precip Rate Daily Precip Total
02:34 AM 11.9°F-11.2°C 9.5°F-12.5°C 90% 16.0 mph SE25.7 kmh SE 20.0 mph32.2 kmh 30.18 in1022.0 mb 0.00 in0.0 mm 0.00 in/hr0.0 mm/hr 0.00 in0.0 mm
02:33 AM 11.9°F-11.2°C 9.5°F-12.5°C 90% 20.0 mph SE32.2 kmh SE 20.0 mph32.2 kmh 30.18 in1022.0 mb 0.00 in0.0 mm 0.00 in/hr0.0 mm/hr 0.00 in0.0 mm
02:32 AM 11.9°F-11.2°C 9.5°F-12.5°C 90% 18.0 mph SE29.0 kmh SE 18.0 mph29.0 kmh 30.19 in1022.4 mb 0.00 in0.0 mm 0.00 in/hr0.0 mm/hr 0.00 in0.0 mm
02:31 AM 11.8°F-11.2°C 9.4°F-12.6°C 90% 15.0 mph SE24.1 kmh SE 22.0 mph35.4 kmh 30.18 in1022.0 mb 0.00 in0.0 mm 0.00 in/hr0.0 mm/hr 0.00 in0.0 mm
02:30 AM 11.8°F-11.2°C 9.4°F-12.6°C 90% 17.0 mph SE27.4 kmh SE 22.0 mph35.4 kmh 30.18 in1022.0 mb 0.00 in0.0 mm 0.00 in/hr0.0 mm/hr 0.00 in0.0 mm
02:29 AM 11.8°F-11.2°C 9.4°F-12.6°C 90% 14.0 mph SE22.5 kmh SE 22.0 mph35.4 kmh 30.19 in1022.4 mb 0.00 in0.0 mm 0.00 in/hr0.0 mm/hr 0.00 in0.0 mm
02:28 AM 11.7°F-11.3°C 9.3°F-12.6°C 90% 15.0 mph SE24.1 kmh SE 22.0 mph35.4 kmh 30.19 in1022.4 mb 0.00 in0.0 mm 0.00 in/hr0.0 mm/hr 0.00 in0.0 mm
02:27 AM 11.7°F-11.3°C 9.3°F-12.6°C 90% 17.0 mph SE27.4 kmh SE 22.0 mph35.4 kmh 30.18 in1022.0 mb 0.00 in0.0 mm 0.00 in/hr0.0 mm/hr 0.00 in0.0 mm
02:26 AM 11.7°F-11.3°C 9.3°F-12.6°C 90% 17.0 mph SE27.4 kmh SE 22.0 mph35.4 kmh 30.18 in1022.0 mb 0.00 in0.0 mm 0.00 in/hr0.0 mm/hr 0.00 in0.0 mm
02:25 AM 11.7°F-11.3°C 9.3°F-12.6°C 90% 17.0 mph SE27.4 kmh SE 22.0 mph35.4 kmh 30.18 in1022.0 mb 0.00 in0.0 mm 0.00 in/hr0.0 mm/hr 0.00 in0.0 mm
02:24 AM 11.7°F-11.3°C 9.3°F-12.6°C 90% 19.0 mph SE30.6 kmh SE 22.0 mph35.4 kmh 30.18 in1022.0 mb 0.00 in0.0 mm 0.00 in/hr0.0 mm/hr 0.00 in0.0 mm
02:23 AM 11.7°F-11.3°C 9.3°F-12.6°C 90% 18.0 mph SE29.0 kmh SE 22.0 mph35.4 kmh 30.18 in1022.0 mb 0.00 in0.0 mm 0.00 in/hr0.0 mm/hr 0.00 in0.0 mm
02:22 AM 11.6°F-11.3°C 9.2°F-12.7°C 90% 17.0 mph SE27.4 kmh SE 22.0 mph35.4 kmh 30.19 in1022.4 mb 0.00 in0.0 mm 0.00 in/hr0.0 mm/hr 0.00 in0.0 mm
02:21 AM 11.6°F-11.3°C 9.2°F-12.7°C 90% 14.0 mph SE22.5 kmh SE 22.0 mph35.4 kmh 30.19 in1022.4 mb 0.00 in0.0 mm 0.00 in/hr0.0 mm/hr 0.00 in0.0 mm
02:20 AM 11.6°F-11.3°C 9.2°F-12.7°C 90% 14.0 mph SE22.5 kmh SE 22.0 mph35.4 kmh 30.19 in1022.4 mb 0.00 in0.0 mm 0.00 in/hr0.0 mm/hr 0.00 in0.0 mm
02:19 AM 11.6°F-11.3°C 9.2°F-12.7°C 90% 17.0 mph SE27.4 kmh SE 22.0 mph35.4 kmh 30.19 in1022.4 mb 0.00 in0.0 mm 0.00 in/hr0.0 mm/hr 0.00 in0.0 mm
02:18 AM 11.6°F-11.3°C 9.2°F-12.7°C 90% 15.0 mph SE24.1 kmh SE 22.0 mph35.4 kmh 30.19 in1022.4 mb 0.00 in0.0 mm 0.00 in/hr0.0 mm/hr 0.00 in0.0 mm
02:17 AM 11.6°F-11.3°C 9.2°F-12.7°C 90% 16.0 mph SE25.7 kmh SE 22.0 mph35.4 kmh 30.20 in1022.7 mb 0.00 in0.0 mm 0.00 in/hr0.0 mm/hr 0.00 in0.0 mm
02:16 AM 11.5°F-11.4°C 9.1°F-12.7°C 90% 13.0 mph SE20.9 kmh SE 22.0 mph35.4 kmh 30.20 in1022.7 mb 0.00 in0.0 mm 0.00 in/hr0.0 mm/hr 0.00 in0.0 mm
02:15 AM 11.5°F-11.4°C 9.1°F-12.7°C 90% 14.0 mph SE22.5 kmh SE 22.0 mph35.4 kmh 30.20 in1022.7 mb 0.00 in0.0 mm 0.00 in/hr0.0 mm/hr 0.00 in0.0 mm
02:14 AM 11.5°F-11.4°C 9.1°F-12.7°C 90% 18.0 mph SE29.0 kmh SE 22.0 mph35.4 kmh 30.20 in1022.7 mb 0.00 in0.0 mm 0.00 in/hr0.0 mm/hr 0.00 in0.0 mm
02:13 AM 11.5°F-11.4°C 9.1°F-12.7°C 90% 14.0 mph SE22.5 kmh SE 22.0 mph35.4 kmh 30.20 in1022.7 mb 0.00 in0.0 mm 0.00 in/hr0.0 mm/hr 0.00 in0.0 mm
02:12 AM 11.4°F-11.4°C 9.0°F-12.8°C 90% 13.0 mph SE20.9 kmh SE 22.0 mph35.4 kmh 30.20 in1022.7 mb 0.00 in0.0 mm 0.00 in/hr0.0 mm/hr 0.00 in0.0 mm
02:11 AM 11.4°F-11.4°C 9.0°F-12.8°C 90% 18.0 mph SE29.0 kmh SE 22.0 mph35.4 kmh 30.20 in1022.7 mb 0.00 in0.0 mm 0.00 in/hr0.0 mm/hr 0.00 in0.0 mm
02:10 AM 11.4°F-11.4°C 9.0°F-12.8°C 90% 14.0 mph SE22.5 kmh SE 22.0 mph35.4 kmh 30.20 in1022.7 mb 0.00 in0.0 mm 0.00 in/hr0.0 mm/hr 0.00 in0.0 mm
02:09 AM 11.4°F-11.4°C 9.0°F-12.8°C 90% 16.0 mph SE25.7 kmh SE 22.0 mph35.4 kmh 30.20 in1022.7 mb 0.00 in0.0 mm 0.00 in/hr0.0 mm/hr 0.00 in0.0 mm
02:08 AM 11.4°F-11.4°C 9.0°F-12.8°C 90% 15.0 mph SE24.1 kmh SE 21.0 mph33.8 kmh 30.21 in1023.0 mb 0.00 in0.0 mm 0.00 in/hr0.0 mm/hr 0.00 in0.0 mm
02:07 AM 11.4°F-11.4°C 9.0°F-12.8°C 90% 15.0 mph SE24.1 kmh SE 21.0 mph33.8 kmh 30.20 in1022.7 mb 0.00 in0.0 mm 0.00 in/hr0.0 mm/hr 0.00 in0.0 mm
02:06 AM 11.3°F-11.5°C 8.9°F-12.8°C 90% 16.0 mph SE25.7 kmh SE 21.0 mph33.8 kmh 30.20 in1022.7 mb 0.00 in0.0 mm 0.00 in/hr0.0 mm/hr 0.00 in0.0 mm
02:05 AM 11.3°F-11.5°C 8.9°F-12.8°C 90% 15.0 mph SE24.1 kmh SE 20.0 mph32.2 kmh 30.20 in1022.7 mb 0.00 in0.0 mm 0.00 in/hr0.0 mm/hr 0.00 in0.0 mm
02:04 AM 11.3°F-11.5°C 8.9°F-12.8°C 90% 17.0 mph SE27.4 kmh SE 20.0 mph32.2 kmh 30.20 in1022.7 mb 0.00 in0.0 mm 0.00 in/hr0.0 mm/hr 0.00 in0.0 mm
02:03 AM 11.3°F-11.5°C 8.9°F-12.8°C 90% 18.0 mph SE29.0 kmh SE 20.0 mph32.2 kmh 30.20 in1022.7 mb 0.00 in0.0 mm 0.00 in/hr0.0 mm/hr 0.00 in0.0 mm
02:02 AM 11.3°F-11.5°C 8.9°F-12.8°C 90% 17.0 mph SE27.4 kmh SE 20.0 mph32.2 kmh 30.20 in1022.7 mb 0.00 in0.0 mm 0.00 in/hr0.0 mm/hr 0.00 in0.0 mm
02:01 AM 11.3°F-11.5°C 8.9°F-12.8°C 90% 15.0 mph SE24.1 kmh SE 21.0 mph33.8 kmh 30.21 in1023.0 mb 0.00 in0.0 mm 0.00 in/hr0.0 mm/hr 0.00 in0.0 mm
02:00 AM 11.2°F-11.6°C 8.9°F-12.8°C 90% 15.0 mph SE24.1 kmh SE 21.0 mph33.8 kmh 30.21 in1023.0 mb 0.00 in0.0 mm 0.00 in/hr0.0 mm/hr 0.00 in0.0 mm
01:59 AM 11.2°F-11.6°C 8.9°F-12.8°C 90% 16.0 mph SE25.7 kmh SE 21.0 mph33.8 kmh 30.21 in1023.0 mb 0.00 in0.0 mm 0.00 in/hr0.0 mm/hr 0.00 in0.0 mm
01:58 AM 11.2°F-11.6°C 8.9°F-12.8°C 90% 15.0 mph SE24.1 kmh SE 21.0 mph33.8 kmh 30.21 in1023.0 mb 0.00 in0.0 mm 0.00 in/hr0.0 mm/hr 0.00 in0.0 mm
01:57 AM 11.2°F-11.6°C 8.9°F-12.8°C 90% 16.0 mph SE25.7 kmh SE 21.0 mph33.8 kmh 30.22 in1023.4 mb 0.00 in0.0 mm 0.00 in/hr0.0 mm/hr 0.00 in0.0 mm
01:56 AM 11.1°F-11.6°C 8.8°F-12.9°C 90% 17.0 mph SE27.4 kmh SE 21.0 mph33.8 kmh 30.22 in1023.4 mb 0.00 in0.0 mm 0.00 in/hr0.0 mm/hr 0.00 in0.0 mm
01:55 AM 11.1°F-11.6°C 8.8°F-12.9°C 90% 14.0 mph SE22.5 kmh SE 21.0 mph33.8 kmh 30.22 in1023.4 mb 0.00 in0.0 mm 0.00 in/hr0.0 mm/hr 0.00 in0.0 mm
01:54 AM 11.1°F-11.6°C 8.8°F-12.9°C 90% 16.0 mph SE25.7 kmh SE 21.0 mph33.8 kmh 30.22 in1023.4 mb 0.00 in0.0 mm 0.00 in/hr0.0 mm/hr 0.00 in0.0 mm
01:53 AM 11.0°F-11.7°C 8.7°F-12.9°C 90% 16.0 mph SE25.7 kmh SE 21.0 mph33.8 kmh 30.22 in1023.4 mb 0.00 in0.0 mm 0.00 in/hr0.0 mm/hr 0.00 in0.0 mm
01:52 AM 11.0°F-11.7°C 8.7°F-12.9°C 90% 15.0 mph SE24.1 kmh SE 21.0 mph33.8 kmh 30.22 in1023.4 mb 0.00 in0.0 mm 0.00 in/hr0.0 mm/hr 0.00 in0.0 mm
01:51 AM 11.0°F-11.7°C 8.7°F-12.9°C 90% 16.0 mph SE25.7 kmh SE 21.0 mph33.8 kmh 30.22 in1023.4 mb 0.00 in0.0 mm 0.00 in/hr0.0 mm/hr 0.00 in0.0 mm
01:50 AM 10.9°F-11.7°C 8.6°F-13.0°C 90% 14.0 mph SE22.5 kmh SE 21.0 mph33.8 kmh 30.22 in1023.4 mb 0.00 in0.0 mm 0.00 in/hr0.0 mm/hr 0.00 in0.0 mm
01:49 AM 10.9°F-11.7°C 8.6°F-13.0°C 90% 14.0 mph SE22.5 kmh SE 21.0 mph33.8 kmh 30.22 in1023.4 mb 0.00 in0.0 mm 0.00 in/hr0.0 mm/hr 0.00 in0.0 mm
01:48 AM 10.9°F-11.7°C 8.6°F-13.0°C 90% 13.0 mph SE20.9 kmh SE 21.0 mph33.8 kmh 30.22 in1023.4 mb 0.00 in0.0 mm 0.00 in/hr0.0 mm/hr 0.00 in0.0 mm
01:47 AM 10.9°F-11.7°C 8.6°F-13.0°C 90% 18.0 mph SE29.0 kmh SE 20.0 mph32.2 kmh 30.22 in1023.4 mb 0.00 in0.0 mm 0.00 in/hr0.0 mm/hr 0.00 in0.0 mm
01:46 AM 10.9°F-11.7°C 8.6°F-13.0°C 90% 16.0 mph SE25.7 kmh SE 20.0 mph32.2 kmh 30.22 in1023.4 mb 0.00 in0.0 mm 0.00 in/hr0.0 mm/hr 0.00 in0.0 mm
01:45 AM 10.9°F-11.7°C 8.6°F-13.0°C 90% 15.0 mph SE24.1 kmh SE 20.0 mph32.2 kmh 30.22 in1023.4 mb 0.00 in0.0 mm 0.00 in/hr0.0 mm/hr 0.00 in0.0 mm
01:44 AM 10.9°F-11.7°C 8.6°F-13.0°C 90% 16.0 mph SE25.7 kmh SE 20.0 mph32.2 kmh 30.22 in1023.4 mb 0.00 in0.0 mm 0.00 in/hr0.0 mm/hr 0.00 in0.0 mm
01:43 AM 10.9°F-11.7°C 8.6°F-13.0°C 90% 17.0 mph SE27.4 kmh SE 20.0 mph32.2 kmh 30.23 in1023.7 mb 0.00 in0.0 mm 0.00 in/hr0.0 mm/hr 0.00 in0.0 mm
01:42 AM 10.9°F-11.7°C 8.6°F-13.0°C 90% 17.0 mph SE27.4 kmh SE 20.0 mph32.2 kmh 30.23 in1023.7 mb 0.00 in0.0 mm 0.00 in/hr0.0 mm/hr 0.00 in0.0 mm
01:41 AM 10.9°F-11.7°C 8.6°F-13.0°C 90% 16.0 mph SE25.7 kmh SE 20.0 mph32.2 kmh 30.23 in1023.7 mb 0.00 in0.0 mm 0.00 in/hr0.0 mm/hr 0.00 in0.0 mm
01:40 AM 10.9°F-11.7°C 8.6°F-13.0°C 90% 18.0 mph ESE29.0 kmh ESE 20.0 mph32.2 kmh 30.23 in1023.7 mb 0.00 in0.0 mm 0.00 in/hr0.0 mm/hr 0.00 in0.0 mm
01:39 AM 10.8°F-11.8°C 8.5°F-13.1°C 90% 17.0 mph SE27.4 kmh SE 20.0 mph32.2 kmh 30.23 in1023.7 mb 0.00 in0.0 mm 0.00 in/hr0.0 mm/hr 0.00 in0.0 mm
01:38 AM 10.8°F-11.8°C 8.5°F-13.1°C 90% 17.0 mph SE27.4 kmh SE 20.0 mph32.2 kmh 30.24 in1024.0 mb 0.00 in0.0 mm 0.00 in/hr0.0 mm/hr 0.00 in0.0 mm
01:37 AM 10.8°F-11.8°C 8.5°F-13.1°C 90% 14.0 mph SE22.5 kmh SE 19.0 mph30.6 kmh 30.23 in1023.7 mb 0.00 in0.0 mm 0.00 in/hr0.0 mm/hr 0.00 in0.0 mm
01:36 AM 10.8°F-11.8°C 8.5°F-13.1°C 90% 15.0 mph SE24.1 kmh SE 19.0 mph30.6 kmh 30.24 in1024.0 mb 0.00 in0.0 mm 0.00 in/hr0.0 mm/hr 0.00 in0.0 mm
01:35 AM 10.8°F-11.8°C 8.5°F-13.1°C 90% 15.0 mph SE24.1 kmh SE 19.0 mph30.6 kmh 30.24 in1024.0 mb 0.00 in0.0 mm 0.00 in/hr0.0 mm/hr 0.00 in0.0 mm
01:34 AM 10.8°F-11.8°C 8.5°F-13.1°C 90% 14.0 mph SE22.5 kmh SE 18.0 mph29.0 kmh 30.23 in1023.7 mb 0.00 in0.0 mm 0.00 in/hr0.0 mm/hr 0.00 in0.0 mm
01:33 AM 10.7°F-11.8°C 8.4°F-13.1°C 90% 15.0 mph SE24.1 kmh SE 18.0 mph29.0 kmh 30.23 in1023.7 mb 0.00 in0.0 mm 0.00 in/hr0.0 mm/hr 0.00 in0.0 mm
01:32 AM 10.8°F-11.8°C 8.5°F-13.1°C 90% 16.0 mph SE25.7 kmh SE 18.0 mph29.0 kmh 30.23 in1023.7 mb 0.00 in0.0 mm 0.00 in/hr0.0 mm/hr 0.00 in0.0 mm
01:31 AM 10.7°F-11.8°C 8.4°F-13.1°C 90% 17.0 mph SE27.4 kmh SE 21.0 mph33.8 kmh 30.23 in1023.7 mb 0.00 in0.0 mm 0.00 in/hr0.0 mm/hr 0.00 in0.0 mm
01:30 AM 10.7°F-11.8°C 8.4°F-13.1°C 90% 13.0 mph SE20.9 kmh SE 21.0 mph33.8 kmh 30.23 in1023.7 mb 0.00 in0.0 mm 0.00 in/hr0.0 mm/hr 0.00 in0.0 mm
01:29 AM 10.7°F-11.8°C 8.4°F-13.1°C 90% 16.0 mph SE25.7 kmh SE 21.0 mph33.8 kmh 30.23 in1023.7 mb 0.00 in0.0 mm 0.00 in/hr0.0 mm/hr 0.00 in0.0 mm
01:28 AM 10.7°F-11.8°C 8.4°F-13.1°C 90% 17.0 mph SE27.4 kmh SE 21.0 mph33.8 kmh 30.24 in1024.0 mb 0.00 in0.0 mm 0.00 in/hr0.0 mm/hr 0.00 in0.0 mm
01:27 AM 10.6°F-11.9°C 8.3°F-13.2°C 90% 17.0 mph ESE27.4 kmh ESE 21.0 mph33.8 kmh 30.23 in1023.7 mb 0.00 in0.0 mm 0.00 in/hr0.0 mm/hr 0.00 in0.0 mm
01:26 AM 10.6°F-11.9°C 8.3°F-13.2°C 90% 16.0 mph SE25.7 kmh SE 21.0 mph33.8 kmh 30.23 in1023.7 mb 0.00 in0.0 mm 0.00 in/hr0.0 mm/hr 0.00 in0.0 mm
01:25 AM 10.6°F-11.9°C 8.3°F-13.2°C 90% 14.0 mph SE22.5 kmh SE 21.0 mph33.8 kmh 30.24 in1024.0 mb 0.00 in0.0 mm 0.00 in/hr0.0 mm/hr 0.00 in0.0 mm
01:24 AM 10.6°F-11.9°C 8.3°F-13.2°C 90% 17.0 mph ESE27.4 kmh ESE 21.0 mph33.8 kmh 30.24 in1024.0 mb 0.00 in0.0 mm 0.00 in/hr0.0 mm/hr 0.00 in0.0 mm
01:23 AM 10.5°F-11.9°C 8.2°F-13.2°C 90% 16.0 mph SE25.7 kmh SE 21.0 mph33.8 kmh 30.24 in1024.0 mb 0.00 in0.0 mm 0.00 in/hr0.0 mm/hr 0.00 in0.0 mm
01:22 AM 10.5°F-11.9°C 8.2°F-13.2°C 90% 15.0 mph SE24.1 kmh SE 21.0 mph33.8 kmh 30.24 in1024.0 mb 0.00 in0.0 mm 0.00 in/hr0.0 mm/hr 0.00 in0.0 mm
01:21 AM 10.5°F-11.9°C 8.2°F-13.2°C 90% 14.0 mph SE22.5 kmh SE 21.0 mph33.8 kmh 30.24 in1024.0 mb 0.00 in0.0 mm 0.00 in/hr0.0 mm/hr 0.00 in0.0 mm
01:20 AM 10.5°F-11.9°C 8.2°F-13.2°C 90% 16.0 mph SE25.7 kmh SE 21.0 mph33.8 kmh 30.24 in1024.0 mb 0.00 in0.0 mm 0.00 in/hr0.0 mm/hr 0.00 in0.0 mm
01:19 AM 10.5°F-11.9°C 8.2°F-13.2°C 90% 17.0 mph ESE27.4 kmh ESE 21.0 mph33.8 kmh 30.24 in1024.0 mb 0.00 in0.0 mm 0.00 in/hr0.0 mm/hr 0.00 in0.0 mm
01:18 AM 10.4°F-12.0°C 8.1°F-13.3°C 90% 18.0 mph SE29.0 kmh SE 21.0 mph33.8 kmh 30.24 in1024.0 mb 0.00 in0.0 mm 0.00 in/hr0.0 mm/hr 0.00 in0.0 mm
01:17 AM 10.4°F-12.0°C 8.1°F-13.3°C 90% 18.0 mph SE29.0 kmh SE 21.0 mph33.8 kmh 30.24 in1024.0 mb 0.00 in0.0 mm 0.00 in/hr0.0 mm/hr 0.00 in0.0 mm
01:16 AM 10.4°F-12.0°C 8.1°F-13.3°C 90% 18.0 mph SE29.0 kmh SE 21.0 mph33.8 kmh 30.24 in1024.0 mb 0.00 in0.0 mm 0.00 in/hr0.0 mm/hr 0.00 in0.0 mm
01:15 AM 10.4°F-12.0°C 8.1°F-13.3°C 90% 15.0 mph ESE24.1 kmh ESE 21.0 mph33.8 kmh 30.24 in1024.0 mb 0.00 in0.0 mm 0.00 in/hr0.0 mm/hr 0.00 in0.0 mm
01:14 AM 10.4°F-12.0°C 8.1°F-13.3°C 90% 14.0 mph SE22.5 kmh SE 21.0 mph33.8 kmh 30.24 in1024.0 mb 0.00 in0.0 mm 0.00 in/hr0.0 mm/hr 0.00 in0.0 mm
01:13 AM 10.4°F-12.0°C 8.1°F-13.3°C 90% 16.0 mph SE25.7 kmh SE 21.0 mph33.8 kmh 30.24 in1024.0 mb 0.00 in0.0 mm 0.00 in/hr0.0 mm/hr 0.00 in0.0 mm
01:12 AM 10.4°F-12.0°C 8.1°F-13.3°C 90% 14.0 mph SE22.5 kmh SE 21.0 mph33.8 kmh 30.25 in1024.4 mb 0.00 in0.0 mm 0.00 in/hr0.0 mm/hr 0.00 in0.0 mm
01:11 AM 10.4°F-12.0°C 8.1°F-13.3°C 90% 16.0 mph SE25.7 kmh SE 21.0 mph33.8 kmh 30.25 in1024.4 mb 0.00 in0.0 mm 0.00 in/hr0.0 mm/hr 0.00 in0.0 mm
01:10 AM 10.3°F-12.1°C 8.0°F-13.3°C 90% 16.0 mph ESE25.7 kmh ESE 21.0 mph33.8 kmh 30.25 in1024.4 mb 0.00 in0.0 mm 0.00 in/hr0.0 mm/hr 0.00 in0.0 mm
01:09 AM 10.3°F-12.1°C 8.0°F-13.3°C 90% 16.0 mph SE25.7 kmh SE 21.0 mph33.8 kmh 30.25 in1024.4 mb 0.00 in0.0 mm 0.00 in/hr0.0 mm/hr 0.00 in0.0 mm
01:08 AM 10.3°F-12.1°C 8.0°F-13.3°C 90% 12.0 mph SE19.3 kmh SE 18.0 mph29.0 kmh 30.26 in1024.7 mb 0.00 in0.0 mm 0.00 in/hr0.0 mm/hr 0.00 in0.0 mm
01:07 AM 10.3°F-12.1°C 8.0°F-13.3°C 90% 16.0 mph SE25.7 kmh SE 18.0 mph29.0 kmh 30.26 in1024.7 mb 0.00 in0.0 mm 0.00 in/hr0.0 mm/hr 0.00 in0.0 mm
01:06 AM 10.2°F-12.1°C 7.9°F-13.4°C 90% 14.0 mph SE22.5 kmh SE 18.0 mph29.0 kmh 30.26 in1024.7 mb 0.00 in0.0 mm 0.00 in/hr0.0 mm/hr 0.00 in0.0 mm
01:05 AM 10.2°F-12.1°C 7.9°F-13.4°C 90% 13.0 mph SE20.9 kmh SE 18.0 mph29.0 kmh 30.26 in1024.7 mb 0.00 in0.0 mm 0.00 in/hr0.0 mm/hr 0.00 in0.0 mm
01:04 AM 10.2°F-12.1°C 7.9°F-13.4°C 90% 14.0 mph SE22.5 kmh SE 18.0 mph29.0 kmh 30.26 in1024.7 mb 0.00 in0.0 mm 0.00 in/hr0.0 mm/hr 0.00 in0.0 mm
01:03 AM 10.2°F-12.1°C 7.9°F-13.4°C 90% 14.0 mph SE22.5 kmh SE 18.0 mph29.0 kmh 30.26 in1024.7 mb 0.00 in0.0 mm 0.00 in/hr0.0 mm/hr 0.00 in0.0 mm
01:02 AM 10.1°F-12.2°C 7.8°F-13.4°C 90% 13.0 mph SE20.9 kmh SE 18.0 mph29.0 kmh 30.26 in1024.7 mb 0.00 in0.0 mm 0.00 in/hr0.0 mm/hr 0.00 in0.0 mm
01:01 AM 10.1°F-12.2°C 7.8°F-13.4°C 90% 14.0 mph ESE22.5 kmh ESE 21.0 mph33.8 kmh 30.26 in1024.7 mb 0.00 in0.0 mm 0.00 in/hr0.0 mm/hr 0.00 in0.0 mm
01:00 AM 10.1°F-12.2°C 7.8°F-13.4°C 90% 13.0 mph SE20.9 kmh SE 21.0 mph33.8 kmh 30.26 in1024.7 mb 0.00 in0.0 mm 0.00 in/hr0.0 mm/hr 0.00 in0.0 mm
12:59 AM 10.1°F-12.2°C 7.8°F-13.4°C 90% 14.0 mph ESE22.5 kmh ESE 21.0 mph33.8 kmh 30.26 in1024.7 mb 0.00 in0.0 mm 0.00 in/hr0.0 mm/hr 0.00 in0.0 mm
12:58 AM 10.0°F-12.2°C 7.7°F-13.5°C 90% 14.0 mph SE22.5 kmh SE 21.0 mph33.8 kmh 30.26 in1024.7 mb 0.00 in0.0 mm 0.00 in/hr0.0 mm/hr 0.00 in0.0 mm
12:57 AM 10.0°F-12.2°C 7.7°F-13.5°C 90% 15.0 mph ESE24.1 kmh ESE 21.0 mph33.8 kmh 30.27 in1025.1 mb 0.00 in0.0 mm 0.00 in/hr0.0 mm/hr 0.00 in0.0 mm
12:56 AM 10.0°F-12.2°C 7.7°F-13.5°C 90% 17.0 mph ESE27.4 kmh ESE 21.0 mph33.8 kmh 30.27 in1025.1 mb 0.00 in0.0 mm 0.00 in/hr0.0 mm/hr 0.00 in0.0 mm
12:55 AM 10.0°F-12.2°C 7.7°F-13.5°C 90% 13.0 mph SE20.9 kmh SE 21.0 mph33.8 kmh 30.27 in1025.1 mb 0.00 in0.0 mm 0.00 in/hr0.0 mm/hr 0.00 in0.0 mm
12:54 AM 9.9°F-12.3°C 7.6°F-13.6°C 90% 14.0 mph ESE22.5 kmh ESE 21.0 mph33.8 kmh 30.27 in1025.1 mb 0.00 in0.0 mm 0.00 in/hr0.0 mm/hr 0.00 in0.0 mm
12:53 AM 9.9°F-12.3°C 7.6°F-13.6°C 90% 15.0 mph ESE24.1 kmh ESE 21.0 mph33.8 kmh 30.27 in1025.1 mb 0.00 in0.0 mm 0.00 in/hr0.0 mm/hr 0.00 in0.0 mm
12:52 AM 9.9°F-12.3°C 7.6°F-13.6°C 90% 13.0 mph ESE20.9 kmh ESE 21.0 mph33.8 kmh 30.26 in1024.7 mb 0.00 in0.0 mm 0.00 in/hr0.0 mm/hr 0.00 in0.0 mm
12:51 AM 9.9°F-12.3°C 7.6°F-13.6°C 90% 13.0 mph ESE20.9 kmh ESE 21.0 mph33.8 kmh 30.26 in1024.7 mb 0.00 in0.0 mm 0.00 in/hr0.0 mm/hr 0.00 in0.0 mm
12:50 AM 9.9°F-12.3°C 7.6°F-13.6°C 90% 14.0 mph SE22.5 kmh SE 21.0 mph33.8 kmh 30.26 in1024.7 mb 0.00 in0.0 mm 0.00 in/hr0.0 mm/hr 0.00 in0.0 mm
12:49 AM 9.8°F-12.3°C 7.5°F-13.6°C 90% 13.0 mph SE20.9 kmh SE 21.0 mph33.8 kmh 30.26 in1024.7 mb 0.00 in0.0 mm 0.00 in/hr0.0 mm/hr 0.00 in0.0 mm
12:48 AM 9.8°F-12.3°C 7.5°F-13.6°C 90% 16.0 mph SE25.7 kmh SE 21.0 mph33.8 kmh 30.26 in1024.7 mb 0.00 in0.0 mm 0.00 in/hr0.0 mm/hr 0.00 in0.0 mm
12:47 AM 9.8°F-12.3°C 7.5°F-13.6°C 90% 16.0 mph SE25.7 kmh SE 21.0 mph33.8 kmh 30.26 in1024.7 mb 0.00 in0.0 mm 0.00 in/hr0.0 mm/hr 0.00 in0.0 mm
12:46 AM 9.8°F-12.3°C 7.5°F-13.6°C 90% 17.0 mph SE27.4 kmh SE 21.0 mph33.8 kmh 30.27 in1025.1 mb 0.00 in0.0 mm 0.00 in/hr0.0 mm/hr 0.00 in0.0 mm
12:45 AM 9.7°F-12.4°C 7.4°F-13.7°C 90% 15.0 mph SE24.1 kmh SE 21.0 mph33.8 kmh 30.27 in1025.1 mb 0.00 in0.0 mm 0.00 in/hr0.0 mm/hr 0.00 in0.0 mm
12:44 AM 9.7°F-12.4°C 7.4°F-13.7°C 90% 14.0 mph ESE22.5 kmh ESE 21.0 mph33.8 kmh 30.27 in1025.1 mb 0.00 in0.0 mm 0.00 in/hr0.0 mm/hr 0.00 in0.0 mm
12:43 AM 9.7°F-12.4°C 7.4°F-13.7°C 90% 13.0 mph SE20.9 kmh SE 21.0 mph33.8 kmh 30.27 in1025.1 mb 0.00 in0.0 mm 0.00 in/hr0.0 mm/hr 0.00 in0.0 mm
12:42 AM 9.6°F-12.4°C 7.3°F-13.7°C 90% 14.0 mph SE22.5 kmh SE 21.0 mph33.8 kmh 30.27 in1025.1 mb 0.00 in0.0 mm 0.00 in/hr0.0 mm/hr 0.00 in0.0 mm
12:41 AM 9.6°F-12.4°C 7.3°F-13.7°C 90% 13.0 mph SE20.9 kmh SE 20.0 mph32.2 kmh 30.27 in1025.1 mb 0.00 in0.0 mm 0.00 in/hr0.0 mm/hr 0.00 in0.0 mm
12:40 AM 9.6°F-12.4°C 7.3°F-13.7°C 90% 16.0 mph SE25.7 kmh SE 20.0 mph32.2 kmh 30.27 in1025.1 mb 0.00 in0.0 mm 0.00 in/hr0.0 mm/hr 0.00 in0.0 mm
12:39 AM 9.6°F-12.4°C 7.3°F-13.7°C 90% 14.0 mph SE22.5 kmh SE 20.0 mph32.2 kmh 30.28 in1025.4 mb 0.00 in0.0 mm 0.00 in/hr0.0 mm/hr 0.00 in0.0 mm
12:38 AM 9.5°F-12.5°C 7.2°F-13.8°C 90% 16.0 mph SE25.7 kmh SE 17.0 mph27.4 kmh 30.28 in1025.4 mb 0.00 in0.0 mm 0.00 in/hr0.0 mm/hr 0.00 in0.0 mm
12:37 AM 9.5°F-12.5°C 7.2°F-13.8°C 90% 15.0 mph SE24.1 kmh SE 17.0 mph27.4 kmh 30.28 in1025.4 mb 0.00 in0.0 mm 0.00 in/hr0.0 mm/hr 0.00 in0.0 mm
12:36 AM 9.5°F-12.5°C 7.2°F-13.8°C 90% 13.0 mph SE20.9 kmh SE 17.0 mph27.4 kmh 30.28 in1025.4 mb 0.00 in0.0 mm 0.00 in/hr0.0 mm/hr 0.00 in0.0 mm
12:35 AM 9.5°F-12.5°C 7.2°F-13.8°C 90% 13.0 mph SE20.9 kmh SE 17.0 mph27.4 kmh 30.28 in1025.4 mb 0.00 in0.0 mm 0.00 in/hr0.0 mm/hr 0.00 in0.0 mm
12:34 AM 9.4°F-12.6°C 7.1°F-13.8°C 90% 13.0 mph SE20.9 kmh SE 17.0 mph27.4 kmh 30.28 in1025.4 mb 0.00 in0.0 mm 0.00 in/hr0.0 mm/hr 0.00 in0.0 mm
12:33 AM 9.4°F-12.6°C 7.1°F-13.8°C 90% 14.0 mph SE22.5 kmh SE 17.0 mph27.4 kmh 30.28 in1025.4 mb 0.00 in0.0 mm 0.00 in/hr0.0 mm/hr 0.00 in0.0 mm
12:32 AM 9.4°F-12.6°C 7.1°F-13.8°C 90% 14.0 mph SE22.5 kmh SE 17.0 mph27.4 kmh 30.28 in1025.4 mb 0.00 in0.0 mm 0.00 in/hr0.0 mm/hr 0.00 in0.0 mm
12:31 AM 9.3°F-12.6°C 7.0°F-13.9°C 90% 17.0 mph SE27.4 kmh SE 19.0 mph30.6 kmh 30.29 in1025.7 mb 0.00 in0.0 mm 0.00 in/hr0.0 mm/hr 0.00 in0.0 mm
12:30 AM 9.3°F-12.6°C 7.0°F-13.9°C 90% 13.0 mph SE20.9 kmh SE 19.0 mph30.6 kmh 30.29 in1025.7 mb 0.00 in0.0 mm 0.00 in/hr0.0 mm/hr 0.00 in0.0 mm
12:29 AM 9.3°F-12.6°C 7.0°F-13.9°C 90% 14.0 mph ESE22.5 kmh ESE 19.0 mph30.6 kmh 30.29 in1025.7 mb 0.00 in0.0 mm 0.00 in/hr0.0 mm/hr 0.00 in0.0 mm
12:28 AM 9.2°F-12.7°C 6.9°F-13.9°C 90% 16.0 mph SE25.7 kmh SE 19.0 mph30.6 kmh 30.29 in1025.7 mb 0.00 in0.0 mm 0.00 in/hr0.0 mm/hr 0.00 in0.0 mm
12:27 AM 9.3°F-12.6°C 7.0°F-13.9°C 90% 14.0 mph ESE22.5 kmh ESE 19.0 mph30.6 kmh 30.29 in1025.7 mb 0.00 in0.0 mm 0.00 in/hr0.0 mm/hr 0.00 in0.0 mm
12:26 AM 9.2°F-12.7°C 6.9°F-13.9°C 90% 14.0 mph SE22.5 kmh SE 19.0 mph30.6 kmh 30.29 in1025.7 mb 0.00 in0.0 mm 0.00 in/hr0.0 mm/hr 0.00 in0.0 mm
12:25 AM 9.2°F-12.7°C 6.6°F-14.1°C 89% 14.0 mph SE22.5 kmh SE 17.0 mph27.4 kmh 30.30 in1026.1 mb 0.00 in0.0 mm 0.00 in/hr0.0 mm/hr 0.00 in0.0 mm
12:24 AM 9.2°F-12.7°C 6.6°F-14.1°C 89% 10.0 mph SE16.1 kmh SE 17.0 mph27.4 kmh 30.30 in1026.1 mb 0.00 in0.0 mm 0.00 in/hr0.0 mm/hr 0.00 in0.0 mm
12:23 AM 9.1°F-12.7°C 6.5°F-14.2°C 89% 16.0 mph ESE25.7 kmh ESE 17.0 mph27.4 kmh 30.30 in1026.1 mb 0.00 in0.0 mm 0.00 in/hr0.0 mm/hr 0.00 in0.0 mm
12:22 AM 9.1°F-12.7°C 6.5°F-14.2°C 89% 16.0 mph ESE25.7 kmh ESE 17.0 mph27.4 kmh 30.30 in1026.1 mb 0.00 in0.0 mm 0.00 in/hr0.0 mm/hr 0.00 in0.0 mm
12:21 AM 9.1°F-12.7°C 6.5°F-14.2°C 89% 16.0 mph ESE25.7 kmh ESE 17.0 mph27.4 kmh 30.30 in1026.1 mb 0.00 in0.0 mm 0.00 in/hr0.0 mm/hr 0.00 in0.0 mm
12:20 AM 9.1°F-12.7°C 6.5°F-14.2°C 89% 15.0 mph ESE24.1 kmh ESE 17.0 mph27.4 kmh 30.29 in1025.7 mb 0.00 in0.0 mm 0.00 in/hr0.0 mm/hr 0.00 in0.0 mm
12:19 AM 9.0°F-12.8°C 6.4°F-14.2°C 89% 11.0 mph SE17.7 kmh SE 17.0 mph27.4 kmh 30.29 in1025.7 mb 0.00 in0.0 mm 0.00 in/hr0.0 mm/hr 0.00 in0.0 mm
12:18 AM 9.0°F-12.8°C 6.4°F-14.2°C 89% 14.0 mph SE22.5 kmh SE 17.0 mph27.4 kmh 30.29 in1025.7 mb 0.00 in0.0 mm 0.00 in/hr0.0 mm/hr 0.00 in0.0 mm
12:17 AM 9.0°F-12.8°C 6.4°F-14.2°C 89% 12.0 mph SE19.3 kmh SE 17.0 mph27.4 kmh 30.30 in1026.1 mb 0.00 in0.0 mm 0.00 in/hr0.0 mm/hr 0.00 in0.0 mm
12:16 AM 9.0°F-12.8°C 6.4°F-14.2°C 89% 14.0 mph SE22.5 kmh SE 17.0 mph27.4 kmh 30.30 in1026.1 mb 0.00 in0.0 mm 0.00 in/hr0.0 mm/hr 0.00 in0.0 mm
12:15 AM 9.0°F-12.8°C 6.4°F-14.2°C 89% 14.0 mph ESE22.5 kmh ESE 17.0 mph27.4 kmh 30.31 in1026.4 mb 0.00 in0.0 mm 0.00 in/hr0.0 mm/hr 0.00 in0.0 mm
12:14 AM 9.0°F-12.8°C 6.4°F-14.2°C 89% 16.0 mph SE25.7 kmh SE 17.0 mph27.4 kmh 30.31 in1026.4 mb 0.00 in0.0 mm 0.00 in/hr0.0 mm/hr 0.00 in0.0 mm
12:13 AM 9.0°F-12.8°C 6.4°F-14.2°C 89% 14.0 mph ESE22.5 kmh ESE 17.0 mph27.4 kmh 30.31 in1026.4 mb 0.00 in0.0 mm 0.00 in/hr0.0 mm/hr 0.00 in0.0 mm
12:12 AM 8.9°F-12.8°C 6.3°F-14.3°C 89% 13.0 mph ESE20.9 kmh ESE 17.0 mph27.4 kmh 30.31 in1026.4 mb 0.00 in0.0 mm 0.00 in/hr0.0 mm/hr 0.00 in0.0 mm
12:11 AM 8.9°F-12.8°C 6.3°F-14.3°C 89% 11.0 mph SE17.7 kmh SE 17.0 mph27.4 kmh 30.31 in1026.4 mb 0.00 in0.0 mm 0.00 in/hr0.0 mm/hr 0.00 in0.0 mm
12:10 AM 8.9°F-12.8°C 6.6°F-14.1°C 90% 12.0 mph SE19.3 kmh SE 17.0 mph27.4 kmh 30.31 in1026.4 mb 0.00 in0.0 mm 0.00 in/hr0.0 mm/hr 0.00 in0.0 mm
12:09 AM 8.8°F-12.9°C 6.2°F-14.3°C 89% 13.0 mph ESE20.9 kmh ESE 17.0 mph27.4 kmh 30.31 in1026.4 mb 0.00 in0.0 mm 0.00 in/hr0.0 mm/hr 0.00 in0.0 mm
12:08 AM 8.8°F-12.9°C 6.2°F-14.3°C 89% 13.0 mph SE20.9 kmh SE 17.0 mph27.4 kmh 30.31 in1026.4 mb 0.00 in0.0 mm 0.00 in/hr0.0 mm/hr 0.00 in0.0 mm
12:07 AM 8.8°F-12.9°C 6.2°F-14.3°C 89% 13.0 mph SE20.9 kmh SE 17.0 mph27.4 kmh 30.31 in1026.4 mb 0.00 in0.0 mm 0.00 in/hr0.0 mm/hr 0.00 in0.0 mm
12:06 AM 8.8°F-12.9°C 6.2°F-14.3°C 89% 15.0 mph SE24.1 kmh SE 16.0 mph25.7 kmh 30.30 in1026.1 mb 0.00 in0.0 mm 0.00 in/hr0.0 mm/hr 0.00 in0.0 mm
12:05 AM 8.7°F-12.9°C 6.1°F-14.4°C 89% 14.0 mph SE22.5 kmh SE 16.0 mph25.7 kmh 30.30 in1026.1 mb 0.00 in0.0 mm 0.00 in/hr0.0 mm/hr 0.00 in0.0 mm
12:04 AM 8.7°F-12.9°C 6.1°F-14.4°C 89% 15.0 mph SE24.1 kmh SE 16.0 mph25.7 kmh 30.31 in1026.4 mb 0.00 in0.0 mm 0.00 in/hr0.0 mm/hr 0.00 in0.0 mm
12:03 AM 8.7°F-12.9°C 6.1°F-14.4°C 89% 15.0 mph SE24.1 kmh SE 16.0 mph25.7 kmh 30.30 in1026.1 mb 0.00 in0.0 mm 0.00 in/hr0.0 mm/hr 0.00 in0.0 mm
12:02 AM 8.7°F-12.9°C 6.1°F-14.4°C 89% 12.0 mph SE19.3 kmh SE 15.0 mph24.1 kmh 30.30 in1026.1 mb 0.00 in0.0 mm 0.00 in/hr0.0 mm/hr 0.00 in0.0 mm
12:01 AM 8.6°F-13.0°C 6.0°F-14.4°C 89% 14.0 mph SE22.5 kmh SE 17.0 mph27.4 kmh 30.31 in1026.4 mb 0.00 in0.0 mm 0.00 in/hr0.0 mm/hr 0.00 in0.0 mm
12:00 AM 8.6°F-13.0°C 6.0°F-14.4°C 89% 14.0 mph SE22.5 kmh SE 17.0 mph27.4 kmh 30.31 in1026.4 mb 0.00 in0.0 mm 0.00 in/hr0.0 mm/hr 0.00 in0.0 mm